Time;durP1;ratioP1;P1;durP2;ratioP2;P2;SDS_P1;SDS_P2;PMS_P1;PMS_P2;Temp;Humidity;BMP_temperature;BMP_pressure;BME280_temperature;BME280_humidity;BME280_pressure;Samples;Min_cycle;Max_cycle;Signal;HPM_P1;HPM_P2
2022/07/10 00:00:34;;;;;;;5.45;0.40;;;;;;;13.24;79.44;102333.63;2103364;28;22712;-72
2022/07/10 00:01:36;;;;;;;5.63;0.40;;;;;;;13.22;79.34;102328.25;2095200;28;20126;-72
2022/07/10 00:02:42;;;;;;;2.67;0.20;;;;;;;13.23;79.29;102323.78;2095659;28;26220;-71
2022/07/10 00:03:44;;;;;;;4.63;0.32;;;;;;;13.24;79.42;102331.81;2103658;28;33094;-72
2022/07/10 00:04:50;;;;;;;5.35;0.50;;;;;;;13.23;78.66;102323.78;2102626;28;20916;-72
2022/07/10 00:05:52;;;;;;;3.90;0.50;;;;;;;13.24;79.92;102328.25;2095641;28;24220;-72
2022/07/10 00:06:55;;;;;;;5.28;0.60;;;;;;;13.23;79.80;102327.38;2095566;28;26124;-72
2022/07/10 00:07:57;;;;;;;7.13;0.40;;;;;;;13.22;79.77;102333.63;2096146;28;30065;-71
2022/07/10 00:08:59;;;;;;;6.50;0.50;;;;;;;13.22;80.10;102333.63;2103184;28;29477;-72
2022/07/10 00:10:02;;;;;;;7.18;0.40;;;;;;;13.22;79.84;102330.94;2102759;28;33315;-72
2022/07/10 00:11:04;;;;;;;6.85;0.60;;;;;;;13.22;79.71;102325.56;2103355;28;23727;-72
2022/07/10 00:12:07;;;;;;;5.43;0.47;;;;;;;13.23;79.84;102321.09;2103201;28;22591;-72
2022/07/10 00:13:08;;;;;;;8.90;0.68;;;;;;;13.24;80.52;102325.56;2095649;28;24253;-72
2022/07/10 00:14:13;;;;;;;6.18;0.32;;;;;;;13.23;80.42;102323.78;2095587;28;22136;-72
2022/07/10 00:15:16;;;;;;;6.88;0.40;;;;;;;13.23;79.55;102322.00;2095371;28;20068;-72
2022/07/10 00:16:18;;;;;;;5.50;0.40;;;;;;;13.23;80.18;102323.78;2096057;28;20985;-71
2022/07/10 00:17:19;;;;;;;7.30;0.50;;;;;;;13.21;80.24;102320.22;2095079;28;23815;-72
2022/07/10 00:18:21;;;;;;;6.03;0.50;;;;;;;13.20;80.26;102322.00;2096283;28;33468;-72
2022/07/10 00:19:23;;;;;;;6.78;0.63;;;;;;;13.21;80.13;102323.81;2094764;28;30798;-72
2022/07/10 00:20:30;;;;;;;4.68;0.40;;;;;;;13.21;80.24;102318.44;2096470;28;20894;-72
2022/07/10 00:21:32;;;;;;;7.00;0.40;;;;;;;13.22;79.98;102317.50;2095477;28;37413;-72
2022/07/10 00:22:40;;;;;;;4.22;0.38;;;;;;;13.20;80.01;102330.09;2099558;28;20045;-72
2022/07/10 00:23:42;;;;;;;3.17;0.20;;;;;;;13.22;79.76;102328.25;2104157;28;24237;-72
2022/07/10 00:24:46;;;;;;;5.78;0.43;;;;;;;13.22;80.13;102327.38;2103278;28;20570;-72
2022/07/10 00:25:48;;;;;;;6.78;0.50;;;;;;;13.22;80.33;102320.19;2095950;28;29310;-72
2022/07/10 00:26:50;;;;;;;6.85;0.40;;;;;;;13.22;80.86;102328.25;2096730;28;20041;-72
2022/07/10 00:27:51;;;;;;;6.32;0.30;;;;;;;13.23;80.15;102324.69;2096235;28;30123;-72
2022/07/10 00:28:55;;;;;;;6.00;0.68;;;;;;;13.23;80.49;102330.06;2097997;28;20080;-72
2022/07/10 00:30:00;;;;;;;5.22;0.35;;;;;;;13.23;80.45;102319.31;2105404;28;20165;-72
2022/07/10 00:31:02;;;;;;;4.75;0.63;;;;;;;13.24;79.89;102328.25;2104704;28;27108;-72
2022/07/10 00:32:05;;;;;;;5.95;0.60;;;;;;;13.24;79.92;102320.19;2097550;28;28258;-72
2022/07/10 00:33:06;;;;;;;4.93;0.35;;;;;;;13.24;80.42;102322.88;2097851;28;20692;-72
2022/07/10 00:34:08;;;;;;;5.82;0.35;;;;;;;13.23;79.82;102321.09;2097742;28;23012;-72
2022/07/10 00:35:12;;;;;;;5.38;0.40;;;;;;;13.24;80.22;102329.13;2097425;28;30636;-72
2022/07/10 00:36:17;;;;;;;4.78;0.43;;;;;;;13.22;79.77;102320.19;2097162;28;21149;-72
2022/07/10 00:37:21;;;;;;;8.60;0.43;;;;;;;13.22;80.20;102328.25;2097515;28;28319;-72
2022/07/10 00:38:25;;;;;;;5.93;0.60;;;;;;;13.24;80.11;102326.44;2097837;28;20372;-72
2022/07/10 00:39:29;;;;;;;8.02;0.80;;;;;;;13.22;80.24;102327.38;2097889;28;20119;-72
2022/07/10 00:40:31;;;;;;;4.20;0.30;;;;;;;13.22;80.25;102322.88;2098078;28;20037;-72
2022/07/10 00:41:33;;;;;;;8.60;0.52;;;;;;;13.22;79.75;102324.69;2097584;28;26397;-72
2022/07/10 00:42:37;;;;;;;6.60;0.40;;;;;;;13.21;79.55;102321.13;2098096;28;20888;-72
2022/07/10 00:44:08;;;;;;;10.98;0.45;;;;;;;13.22;79.53;102322.88;2097966;28;20899;-72
2022/07/10 00:45:11;;;;;;;6.65;0.40;;;;;;;13.21;79.62;102321.13;2092055;28;30511;-72
2022/07/10 00:46:15;;;;;;;6.75;0.35;;;;;;;13.23;80.32;102321.09;2098729;28;20486;-72
2022/07/10 00:47:19;;;;;;;7.30;0.63;;;;;;;13.23;80.60;102319.31;2097811;28;20045;-72
2022/07/10 00:48:21;;;;;;;5.70;0.30;;;;;;;13.21;80.69;102322.91;2097458;28;26407;-72
2022/07/10 00:49:22;;;;;;;8.27;0.52;;;;;;;13.20;80.10;102324.69;2097990;28;20049;-72
2022/07/10 00:50:28;;;;;;;8.50;0.38;;;;;;;13.18;80.47;102316.66;2097542;28;29299;-72
2022/07/10 00:51:33;;;;;;;5.80;0.47;;;;;;;13.17;80.87;102314.88;2105156;28;20957;-72
2022/07/10 00:52:38;;;;;;;6.00;0.43;;;;;;;13.15;80.31;102314.03;2104277;28;31399;-72
2022/07/10 00:53:42;;;;;;;5.85;0.75;;;;;;;13.14;80.57;102309.53;2097732;28;32169;-72
2022/07/10 00:54:47;;;;;;;6.53;0.65;;;;;;;13.12;80.78;102310.47;2097891;28;23697;-72
2022/07/10 00:55:49;;;;;;;3.13;0.25;;;;;;;13.11;80.90;102311.38;2097571;28;20064;-72
2022/07/10 00:56:51;;;;;;;4.32;0.40;;;;;;;13.07;81.32;102310.50;2104668;28;40009;-72
2022/07/10 00:57:53;;;;;;;6.75;0.57;;;;;;;13.07;81.19;102305.13;2105493;28;20082;-72
2022/07/10 00:58:55;;;;;;;7.15;0.40;;;;;;;13.04;81.17;102305.16;2097151;28;33731;-71
2022/07/10 00:59:59;;;;;;;3.70;0.32;;;;;;;13.03;80.74;102311.47;2105347;28;20133;-72
2022/07/10 01:01:02;;;;;;;9.30;0.32;;;;;;;13.02;81.12;102311.47;2104745;28;31007;-72
2022/07/10 01:02:05;;;;;;;4.95;0.50;;;;;;;13.01;80.74;102304.31;2105181;28;23194;-72
2022/07/10 01:03:07;;;;;;;6.43;0.40;;;;;;;13.01;80.93;102309.69;2105200;28;20146;-72
2022/07/10 01:04:09;;;;;;;4.80;0.38;;;;;;;13.01;80.84;102302.53;2097541;28;29444;-72
2022/07/10 01:05:11;;;;;;;5.80;0.52;;;;;;;13.01;80.96;102307.00;2096972;28;36086;-72
2022/07/10 01:06:16;;;;;;;8.98;0.85;;;;;;;12.98;81.77;102308.81;2105215;28;21246;-72
2022/07/10 01:07:18;;;;;;;4.72;0.55;;;;;;;12.99;81.16;102305.22;2105097;28;25512;-72
2022/07/10 01:08:20;;;;;;;5.72;0.43;;;;;;;12.98;81.13;102299.88;2105456;28;20949;-72
2022/07/10 01:09:22;;;;;;;4.85;0.40;;;;;;;12.96;81.78;102290.94;2096894;28;20247;-72
2022/07/10 01:10:24;;;;;;;8.25;0.35;;;;;;;12.97;80.78;102290.91;2088515;28;20959;-72
2022/07/10 01:11:26;;;;;;;7.80;0.47;;;;;;;12.97;81.16;102285.53;2097349;28;23899;-72
2022/07/10 01:12:28;;;;;;;4.05;0.20;;;;;;;12.96;80.56;102275.69;2105192;28;27315;-72
2022/07/10 01:13:31;;;;;;;3.58;0.30;;;;;;;12.95;81.15;102275.69;2096820;28;20037;-72
2022/07/10 01:14:35;;;;;;;7.32;0.30;;;;;;;12.93;81.53;102273.03;2097391;28;20122;-72
2022/07/10 01:15:38;;;;;;;4.60;0.30;;;;;;;12.93;81.18;102274.84;2097280;28;27099;-72
2022/07/10 01:16:40;;;;;;;10.32;0.85;;;;;;;12.93;81.29;102272.13;2097638;28;20131;-72
2022/07/10 01:17:42;;;;;;;5.20;0.40;;;;;;;12.91;80.97;102280.22;2105190;28;27286;-72
2022/07/10 01:18:44;;;;;;;4.35;0.45;;;;;;;12.90;81.01;102273.09;2104501;28;27687;-72
2022/07/10 01:19:46;;;;;;;6.45;0.60;;;;;;;12.90;81.30;102273.09;2105285;28;20080;-72
2022/07/10 01:20:56;;;;;;;6.50;0.40;;;;;;;12.86;81.63;102275.81;2104983;28;24288;-72
2022/07/10 01:21:58;;;;;;;6.88;0.32;;;;;;;12.83;81.42;102275.81;2097540;28;22832;-72
2022/07/10 01:23:00;;;;;;;5.68;0.30;;;;;;;12.80;81.50;102277.66;2097777;28;20029;-72
2022/07/10 01:24:08;;;;;;;5.07;0.40;;;;;;;12.77;82.13;102276.78;2105078;28;20044;-72
2022/07/10 01:25:11;;;;;;;3.78;0.35;;;;;;;12.75;81.96;102281.28;2104347;28;26903;-72
2022/07/10 01:26:13;;;;;;;8.88;0.40;;;;;;;12.70;82.09;102285.81;2105007;28;25806;-72
2022/07/10 01:27:14;;;;;;;3.85;0.30;;;;;;;12.68;82.61;102291.22;2104311;28;35568;-72
2022/07/10 01:28:17;;;;;;;4.78;0.20;;;;;;;12.65;82.26;102282.28;2105005;28;22421;-72
2022/07/10 01:29:21;;;;;;;4.63;0.38;;;;;;;12.63;82.80;102284.09;2096667;28;21455;-72
2022/07/10 01:30:24;;;;;;;3.72;0.32;;;;;;;12.58;83.60;102286.84;2097246;28;20890;-72
2022/07/10 01:31:27;;;;;;;5.32;0.40;;;;;;;12.54;83.85;102287.75;2096611;28;23949;-72
2022/07/10 01:32:38;;;;;;;5.20;0.30;;;;;;;12.52;83.18;102294.94;2097188;28;20041;-72
2022/07/10 01:33:42;;;;;;;8.55;0.30;;;;;;;12.48;84.01;102283.34;2097887;28;20140;-72
2022/07/10 01:34:45;;;;;;;1.58;0.20;;;;;;;12.47;83.49;102286.94;2105003;28;29189;-72
2022/07/10 01:35:47;;;;;;;3.92;0.35;;;;;;;12.45;83.71;102286.06;2104898;28;20057;-72
2022/07/10 01:36:49;;;;;;;6.82;0.30;;;;;;;12.43;83.89;102281.63;2096734;28;27996;-72
2022/07/10 01:37:53;;;;;;;5.10;0.30;;;;;;;12.40;83.62;102277.16;2097000;28;34011;-72
2022/07/10 01:38:55;;;;;;;7.15;0.30;;;;;;;12.39;84.00;102283.44;2096415;28;35154;-72
2022/07/10 01:39:57;;;;;;;4.55;0.25;;;;;;;12.37;84.02;102282.56;2104739;28;38505;-72
2022/07/10 01:40:59;;;;;;;4.57;0.28;;;;;;;12.36;83.97;102283.44;2104693;28;21485;-72
2022/07/10 01:42:00;;;;;;;6.22;0.30;;;;;;;12.35;84.37;102277.19;2097426;28;20114;-72
2022/07/10 01:43:02;;;;;;;2.92;0.30;;;;;;;12.36;85.29;102275.41;2096845;28;34373;-72
2022/07/10 01:44:04;;;;;;;6.15;0.40;;;;;;;12.37;84.74;102274.50;2097625;28;20037;-72
2022/07/10 01:45:08;;;;;;;3.55;0.20;;;;;;;12.38;85.20;102281.63;2097400;28;26814;-72
2022/07/10 01:46:12;;;;;;;5.00;0.30;;;;;;;12.38;84.67;102282.56;2097106;28;20045;-72
2022/07/10 01:47:14;;;;;;;3.88;0.22;;;;;;;12.40;85.64;102277.16;2097145;28;20037;-72
2022/07/10 01:48:16;;;;;;;5.03;0.32;;;;;;;12.40;85.10;102279.84;2097108;28;20276;-72
2022/07/10 01:49:21;;;;;;;4.72;0.40;;;;;;;12.41;85.05;102281.63;2096728;28;36677;-72
2022/07/10 01:50:23;;;;;;;5.72;0.30;;;;;;;12.40;84.91;102278.06;2096925;28;34174;-72
2022/07/10 01:51:27;;;;;;;5.72;0.40;;;;;;;12.42;84.56;102269.97;2096864;28;24745;-72
2022/07/10 01:52:29;;;;;;;6.03;0.40;;;;;;;12.43;85.10;102277.13;2097425;28;20122;-72
2022/07/10 01:53:31;;;;;;;7.30;0.38;;;;;;;12.45;85.21;102269.94;2105009;28;26387;-72
2022/07/10 01:54:33;;;;;;;5.32;0.60;;;;;;;12.44;84.69;102270.84;2096744;28;20842;-72
2022/07/10 01:55:35;;;;;;;3.53;0.20;;;;;;;12.44;84.27;102268.16;2096045;28;37762;-72
2022/07/10 01:56:38;;;;;;;4.25;0.30;;;;;;;12.44;84.06;102273.53;2097314;28;22454;-72
2022/07/10 01:57:40;;;;;;;5.35;0.30;;;;;;;12.45;84.45;102269.06;2097484;28;20108;-72
2022/07/10 01:58:42;;;;;;;4.60;0.25;;;;;;;12.44;83.62;102268.16;2097283;28;28741;-72
2022/07/10 01:59:44;;;;;;;4.85;0.30;;;;;;;12.44;84.10;102264.59;2096576;28;31696;-72
2022/07/10 02:00:46;;;;;;;5.60;0.40;;;;;;;12.45;83.94;102269.06;2097169;28;20909;-72
2022/07/10 02:01:48;;;;;;;6.90;0.40;;;;;;;12.43;83.52;102266.38;2096971;28;20505;-72
2022/07/10 02:05:32;;;;;;;4.95;0.47;;;;;;;12.42;83.35;102253.88;2097111;28;30517;-72
2022/07/10 02:06:34;;;;;;;6.13;0.35;;;;;;;12.41;83.69;102257.44;2096537;28;38484;-72
2022/07/10 02:07:36;;;;;;;4.78;0.28;;;;;;;12.39;83.46;102254.78;2096667;28;36550;-72
2022/07/10 02:08:37;;;;;;;7.13;0.43;;;;;;;12.36;83.57;102256.59;2097367;28;21068;-72
2022/07/10 02:09:42;;;;;;;6.25;0.47;;;;;;;12.33;83.50;102249.47;2097380;28;20163;-72
2022/07/10 02:10:46;;;;;;;6.43;0.40;;;;;;;12.31;83.03;102251.28;2096481;28;39535;-72
2022/07/10 02:11:48;;;;;;;8.27;0.50;;;;;;;12.25;83.58;102255.81;2096950;28;22716;-72
2022/07/10 02:12:49;;;;;;;5.50;0.40;;;;;;;12.21;84.00;102261.19;2104976;28;20095;-72
2022/07/10 02:13:53;;;;;;;4.63;0.45;;;;;;;12.18;84.05;102266.59;2104016;28;35434;-72
2022/07/10 02:14:59;;;;;;;8.63;0.30;;;;;;;12.13;84.25;102268.44;2096983;28;26040;-72
2022/07/10 02:16:01;;;;;;;6.88;0.40;;;;;;;12.10;84.13;102262.22;2097267;28;24769;-72
2022/07/10 02:17:04;;;;;;;8.50;0.60;;;;;;;12.04;83.84;102260.44;2097095;28;30957;-72
2022/07/10 02:18:06;;;;;;;7.32;0.40;;;;;;;12.00;84.54;102264.94;2097253;28;20126;-72
2022/07/10 02:19:07;;;;;;;6.18;0.43;;;;;;;11.96;84.70;102265.00;2097074;28;22852;-72
2022/07/10 02:20:10;;;;;;;6.28;0.40;;;;;;;11.94;84.96;102261.44;2097007;28;21921;-72
2022/07/10 02:21:14;;;;;;;6.75;0.30;;;;;;;11.89;85.02;102257.84;2096555;28;34697;-72
2022/07/10 02:22:21;;;;;;;3.75;0.25;;;;;;;11.84;84.88;102261.47;2096716;28;27190;-72
2022/07/10 02:23:22;;;;;;;4.85;0.30;;;;;;;11.85;85.34;102259.66;2097285;28;26552;-72
2022/07/10 02:24:27;;;;;;;4.93;0.50;;;;;;;11.85;85.84;102262.34;2097317;28;20033;-72
2022/07/10 02:25:29;;;;;;;2.70;0.30;;;;;;;11.83;85.22;102257.00;2096517;28;40648;-72
2022/07/10 02:26:30;;;;;;;6.20;0.30;;;;;;;11.84;85.66;102258.78;2097116;28;20041;-72
2022/07/10 02:27:32;;;;;;;5.00;0.30;;;;;;;11.87;85.53;102259.66;2104542;28;25774;-72
2022/07/10 02:28:34;;;;;;;3.33;0.20;;;;;;;11.90;85.31;102257.88;2104191;28;38800;-72
2022/07/10 02:29:37;;;;;;;6.07;0.20;;;;;;;11.94;84.82;102256.06;2104468;28;20144;-72
2022/07/10 02:30:39;;;;;;;2.88;0.30;;;;;;;11.93;84.67;102265.00;2104932;28;24496;-72
2022/07/10 02:31:41;;;;;;;7.40;0.45;;;;;;;11.96;84.87;102259.63;2105208;28;20130;-72
2022/07/10 02:32:43;;;;;;;4.93;0.35;;;;;;;11.97;85.20;102256.00;2104397;28;26081;-72
2022/07/10 02:33:45;;;;;;;5.57;0.50;;;;;;;12.00;84.39;102261.38;2097072;28;24311;-72
2022/07/10 02:34:46;;;;;;;7.10;0.40;;;;;;;12.02;84.67;102260.47;2097450;28;20964;-72
2022/07/10 02:35:51;;;;;;;5.03;0.40;;;;;;;12.03;84.44;102261.34;2096751;28;30054;-72
2022/07/10 02:36:53;;;;;;;4.80;0.40;;;;;;;12.05;84.34;102258.66;2096301;28;30645;-72
2022/07/10 02:37:54;;;;;;;4.25;0.30;;;;;;;12.07;84.05;102252.38;2097733;28;20114;-72
2022/07/10 02:38:59;;;;;;;4.10;0.32;;;;;;;12.09;84.23;102249.66;2096998;28;20894;-72
2022/07/10 02:40:01;;;;;;;5.13;0.30;;;;;;;12.10;84.40;102255.03;2104029;28;30731;-72
2022/07/10 02:41:03;;;;;;;4.63;0.20;;;;;;;12.13;83.87;102256.78;2104499;28;26101;-72
2022/07/10 02:42:07;;;;;;;4.18;0.40;;;;;;;12.14;83.85;102259.47;2104912;28;23405;-72
2022/07/10 02:43:09;;;;;;;4.03;0.40;;;;;;;12.15;84.40;102255.88;2104680;28;20025;-72
2022/07/10 02:44:11;;;;;;;4.55;0.40;;;;;;;12.16;83.89;102254.09;2097045;28;25812;-72
2022/07/10 02:45:13;;;;;;;4.53;0.52;;;;;;;12.17;83.88;102253.19;2096944;28;21325;-72
2022/07/10 02:46:15;;;;;;;7.70;0.30;;;;;;;12.18;83.68;102255.84;2096513;28;26818;-72
2022/07/10 02:47:16;;;;;;;6.68;0.40;;;;;;;12.18;84.13;102250.47;2103973;28;29015;-72
2022/07/10 02:48:18;;;;;;;4.68;0.40;;;;;;;12.20;83.64;102242.41;2104934;28;20106;-72
2022/07/10 02:49:20;;;;;;;6.82;0.30;;;;;;;12.22;83.64;102249.56;2103681;28;34067;-72
2022/07/10 02:50:23;;;;;;;3.78;0.38;;;;;;;12.22;83.74;102245.97;2103452;28;34826;-72
2022/07/10 02:51:25;;;;;;;7.70;0.40;;;;;;;12.22;83.96;102245.97;2095670;28;20720;-72
2022/07/10 02:52:30;;;;;;;6.18;0.50;;;;;;;12.23;83.55;102243.28;2096832;28;26277;-72
2022/07/10 02:53:34;;;;;;;10.43;0.50;;;;;;;12.25;83.38;102247.75;2096916;28;22260;-72
2022/07/10 02:54:37;;;;;;;7.60;0.55;;;;;;;12.26;83.74;102244.16;2096812;28;23075;-72
2022/07/10 02:55:39;;;;;;;5.85;0.30;;;;;;;12.27;83.21;102251.31;2096617;28;25940;-72
2022/07/10 02:56:41;;;;;;;6.10;0.40;;;;;;;12.28;83.89;102255.78;2096740;28;26141;-72
2022/07/10 02:57:43;;;;;;;7.20;0.40;;;;;;;12.30;83.80;102249.47;2096829;28;26295;-72
2022/07/10 02:58:47;;;;;;;7.88;0.40;;;;;;;12.32;83.66;102257.53;2096841;28;26628;-72
2022/07/10 02:59:49;;;;;;;8.35;0.38;;;;;;;12.32;83.35;102261.09;2104021;28;21815;-72
2022/07/10 03:00:51;;;;;;;7.72;0.43;;;;;;;12.33;83.11;102254.84;2104199;28;27667;-72
2022/07/10 03:01:55;;;;;;;7.25;0.45;;;;;;;12.33;82.78;102260.22;2096579;28;20046;-72
2022/07/10 03:02:57;;;;;;;4.57;0.43;;;;;;;12.35;82.40;102260.19;2096922;28;20037;-72
2022/07/10 03:04:01;;;;;;;4.93;0.25;;;;;;;12.36;82.80;102253.91;2097009;28;22618;-72
2022/07/10 03:05:07;;;;;;;7.07;0.30;;;;;;;12.36;82.00;102245.84;2097331;28;20091;-72
2022/07/10 03:06:09;;;;;;;5.95;0.50;;;;;;;12.36;82.36;102244.06;2096047;28;29476;-72
2022/07/10 03:07:12;;;;;;;6.43;0.50;;;;;;;12.39;82.68;102256.56;2096665;28;29381;-72
2022/07/10 03:08:15;;;;;;;4.35;0.30;;;;;;;12.37;82.65;102259.28;2096166;28;20160;-72
2022/07/10 03:09:17;;;;;;;2.95;0.22;;;;;;;12.40;81.76;102255.69;2096294;28;22146;-72
2022/07/10 03:10:22;;;;;;;4.55;0.40;;;;;;;12.39;81.97;102248.53;2096059;28;37605;-72
2022/07/10 03:11:24;;;;;;;7.70;0.35;;;;;;;12.40;81.90;102250.31;2096511;28;34744;-72
2022/07/10 03:12:27;;;;;;;7.50;0.52;;;;;;;12.39;82.04;102248.53;2096178;28;30174;-72
2022/07/10 03:13:31;;;;;;;5.05;0.70;;;;;;;12.40;82.23;102247.63;2096892;28;22194;-71
2022/07/10 03:14:32;;;;;;;6.85;0.45;;;;;;;12.38;82.51;102247.63;2104133;28;32673;-72
2022/07/10 03:15:34;;;;;;;7.32;0.50;;;;;;;12.38;82.49;102247.63;2104334;28;25089;-72
2022/07/10 03:16:36;;;;;;;7.10;0.40;;;;;;;12.39;82.48;102244.03;2096784;28;20138;-72
2022/07/10 03:17:39;;;;;;;6.88;0.50;;;;;;;12.38;82.00;102241.34;2096807;28;23404;-72
2022/07/10 03:18:41;;;;;;;5.53;0.32;;;;;;;12.38;81.92;102247.63;2096738;28;20916;-72
2022/07/10 03:19:43;;;;;;;5.82;0.50;;;;;;;12.38;82.43;102252.09;2104297;28;25964;-72
2022/07/10 03:20:45;;;;;;;5.28;0.43;;;;;;;12.36;82.34;102249.44;2104594;28;25271;-72
2022/07/10 03:21:47;;;;;;;7.57;0.40;;;;;;;12.35;82.48;102246.78;2096482;28;26219;-72
2022/07/10 03:22:51;;;;;;;8.07;0.40;;;;;;;12.30;82.64;102249.47;2096963;28;29372;-72
2022/07/10 03:23:54;;;;;;;4.25;0.30;;;;;;;12.27;82.09;102249.50;2096748;28;25568;-72
2022/07/10 03:24:56;;;;;;;5.15;0.40;;;;;;;12.22;82.43;102252.25;2096801;28;27756;-72
2022/07/10 03:25:59;;;;;;;3.33;0.50;;;;;;;12.18;82.62;102253.16;2097023;28;26288;-72
2022/07/10 03:27:01;;;;;;;5.18;0.50;;;;;;;12.17;82.81;102254.09;2096847;28;20155;-72
2022/07/10 03:28:03;;;;;;;10.18;0.60;;;;;;;12.14;83.00;102253.22;2096315;28;35651;-72
2022/07/10 03:29:04;;;;;;;6.40;0.50;;;;;;;12.11;83.10;102248.75;2095996;28;39220;-72
2022/07/10 03:30:07;;;;;;;4.57;0.30;;;;;;;12.09;82.99;102253.25;2096805;28;25566;-72
2022/07/10 03:31:09;;;;;;;8.02;0.77;;;;;;;12.08;83.61;102253.25;2096492;28;24121;-72
2022/07/10 03:32:12;;;;;;;5.72;0.40;;;;;;;12.05;83.06;102247.94;2104413;28;20454;-72
2022/07/10 03:33:13;;;;;;;7.93;0.60;;;;;;;12.03;83.21;102239.88;2103961;28;30621;-72
2022/07/10 03:34:15;;;;;;;9.25;0.50;;;;;;;12.02;83.95;102240.78;2096564;28;26496;-72
2022/07/10 03:35:19;;;;;;;5.82;0.50;;;;;;;12.01;84.18;102247.06;2096949;28;20037;-72
2022/07/10 03:36:21;;;;;;;3.88;0.52;;;;;;;12.00;83.91;102242.56;2096054;28;39805;-72
2022/07/10 03:37:23;;;;;;;4.95;0.68;;;;;;;12.01;84.58;102237.19;2096288;28;36503;-72
2022/07/10 03:38:25;;;;;;;4.35;0.40;;;;;;;12.00;83.87;102251.50;2096936;28;20029;-72
2022/07/10 03:39:28;;;;;;;7.20;0.52;;;;;;;12.01;84.21;102241.69;2096530;28;22954;-72
2022/07/10 03:40:30;;;;;;;12.25;0.50;;;;;;;12.01;84.80;102241.69;2096659;28;28458;-72
2022/07/10 03:41:32;;;;;;;4.53;0.40;;;;;;;12.01;83.92;102244.38;2095821;28;39359;-72
2022/07/10 03:42:34;;;;;;;3.97;0.30;;;;;;;12.00;84.23;102247.94;2096724;28;29652;-72
2022/07/10 03:43:36;;;;;;;9.05;0.80;;;;;;;12.01;84.47;102249.75;2096417;28;22264;-72
2022/07/10 03:44:37;;;;;;;5.22;0.35;;;;;;;12.01;84.78;102255.13;2097216;28;23278;-72
2022/07/10 03:45:39;;;;;;;5.53;0.60;;;;;;;12.01;84.69;102249.75;2095985;28;32433;-72
2022/07/10 03:46:41;;;;;;;5.68;0.80;;;;;;;12.01;84.94;102249.75;2097152;28;20934;-72
2022/07/10 03:47:43;;;;;;;10.27;0.90;;;;;;;12.01;84.81;102247.06;2103914;28;33164;-72
2022/07/10 03:48:45;;;;;;;5.53;0.38;;;;;;;12.02;84.52;102252.41;2104095;28;20805;-72
2022/07/10 03:49:47;;;;;;;5.93;0.30;;;;;;;12.03;84.40;102250.63;2096597;28;26719;-72
2022/07/10 03:50:50;;;;;;;9.40;0.70;;;;;;;12.01;84.15;102249.75;2104268;28;28543;-72
2022/07/10 03:51:52;;;;;;;8.45;0.52;;;;;;;12.03;84.42;102247.94;2103590;28;20035;-72
2022/07/10 03:52:54;;;;;;;3.03;0.47;;;;;;;12.04;84.17;102257.75;2096495;28;23439;-72
2022/07/10 03:53:58;;;;;;;4.63;0.60;;;;;;;12.04;84.16;102252.38;2096072;28;27441;-72
2022/07/10 03:55:02;;;;;;;7.32;0.82;;;;;;;12.05;84.31;102248.81;2096853;28;20332;-72
2022/07/10 03:56:04;;;;;;;6.35;0.60;;;;;;;12.08;84.66;102242.50;2096550;28;20902;-72
2022/07/10 03:58:29;;;;;;;4.30;0.35;;;;;;;12.13;84.36;102246.97;2096306;28;22544;-72
2022/07/10 03:59:31;;;;;;;4.93;0.60;;;;;;;12.16;84.01;102249.59;2096274;28;26266;-72
2022/07/10 04:00:33;;;;;;;5.97;0.40;;;;;;;12.19;84.02;102249.59;2096961;28;20134;-72
2022/07/10 04:01:35;;;;;;;9.45;0.40;;;;;;;12.22;84.41;102237.91;2096716;28;20802;-72
2022/07/10 04:02:37;;;;;;;9.88;0.70;;;;;;;12.28;83.63;102245.94;2097021;28;23701;-72
2022/07/10 04:03:41;;;;;;;5.13;0.32;;;;;;;12.37;83.88;102253.00;2098250;28;20448;-72
2022/07/10 04:04:42;;;;;;;5.75;0.50;;;;;;;12.51;83.64;102239.47;2097439;28;37234;-72
2022/07/10 04:05:46;;;;;;;5.70;0.50;;;;;;;12.71;83.19;102241.94;2097829;28;27555;-72
2022/07/10 04:06:50;;;;;;;5.78;0.47;;;;;;;12.87;81.80;102246.22;2105687;28;20044;-72
2022/07/10 04:07:53;;;;;;;8.23;0.43;;;;;;;13.06;80.70;102240.63;2096827;28;20837;-72
2022/07/10 04:08:55;;;;;;;4.43;0.50;;;;;;;13.45;80.24;102241.03;2097309;28;20660;-72
2022/07/10 04:09:56;;;;;;;6.13;0.38;;;;;;;13.52;78.59;102231.97;2097352;28;25288;-72
2022/07/10 04:10:58;;;;;;;5.93;0.50;;;;;;;13.99;77.91;102241.13;2097987;28;21039;-72
2022/07/10 04:12:00;;;;;;;4.88;0.30;;;;;;;14.41;76.04;102238.63;2098209;28;20085;-72
2022/07/10 04:13:02;;;;;;;6.93;0.30;;;;;;;14.79;74.14;102238.84;2097986;28;22681;-72
2022/07/10 04:14:04;;;;;;;5.30;0.30;;;;;;;15.16;72.82;102228.16;2097856;28;29950;-72
2022/07/10 04:15:06;;;;;;;5.00;0.40;;;;;;;15.63;70.08;102228.94;2097242;28;35323;-72
2022/07/10 04:16:12;;;;;;;7.25;0.45;;;;;;;16.00;69.56;102225.34;2097959;28;24299;-72
2022/07/10 04:17:14;;;;;;;9.32;0.35;;;;;;;16.30;67.62;102233.59;2097928;28;22926;-72
2022/07/10 04:18:16;;;;;;;5.82;0.50;;;;;;;16.75;66.81;102232.41;2097723;28;28345;-72
2022/07/10 04:19:18;;;;;;;6.10;0.35;;;;;;;16.92;65.17;102231.94;2097809;28;26107;-72
2022/07/10 04:20:23;;;;;;;5.85;0.40;;;;;;;17.11;63.33;102226.91;2097997;28;22545;-72
2022/07/10 04:21:24;;;;;;;3.33;0.40;;;;;;;17.42;63.63;102224.13;2104668;28;27895;-72
2022/07/10 04:22:29;;;;;;;5.28;0.50;;;;;;;17.49;61.31;102225.72;2105206;28;33056;-72
2022/07/10 04:23:34;;;;;;;3.97;0.40;;;;;;;17.66;60.55;102232.44;2097167;28;34499;-72
2022/07/10 04:24:36;;;;;;;6.13;0.20;;;;;;;17.78;62.18;102225.72;2097723;28;27538;-72
2022/07/10 04:25:37;;;;;;;3.63;0.20;;;;;;;17.78;60.52;102225.72;2097765;28;22369;-72
2022/07/10 04:26:39;;;;;;;4.75;0.30;;;;;;;17.73;61.96;102224.06;2098057;28;21462;-72
2022/07/10 04:27:41;;;;;;;3.70;0.30;;;;;;;17.67;61.50;102224.25;2105468;28;26744;-72
2022/07/10 04:28:42;;;;;;;6.60;0.35;;;;;;;17.40;61.52;102226.00;2104815;28;37673;-72
2022/07/10 04:29:49;;;;;;;7.45;0.55;;;;;;;17.31;61.63;102219.03;2097627;28;38340;-72
2022/07/10 04:30:51;;;;;;;4.38;0.43;;;;;;;17.37;62.57;102223.38;2098133;28;21177;-72
2022/07/10 04:31:53;;;;;;;5.00;0.30;;;;;;;17.50;62.42;102224.78;2097682;28;21730;-72
2022/07/10 04:32:54;;;;;;;11.68;0.50;;;;;;;17.54;62.05;102217.47;2097257;28;33724;-72
2022/07/10 04:33:57;;;;;;;5.95;0.30;;;;;;;17.85;61.08;102222.78;2097267;28;27807;-72
2022/07/10 04:35:00;;;;;;;5.07;0.40;;;;;;;18.23;60.50;102223.34;2097654;28;28412;-72
2022/07/10 04:36:03;;;;;;;6.40;0.47;;;;;;;18.11;59.85;102219.22;2104776;28;25364;-72
2022/07/10 04:37:07;;;;;;;4.35;0.20;;;;;;;18.16;60.22;102223.59;2104881;28;32494;-72
2022/07/10 04:38:08;;;;;;;7.57;0.50;;;;;;;18.46;59.14;102230.66;2096772;28;28493;-72
2022/07/10 04:39:10;;;;;;;5.95;0.30;;;;;;;18.94;56.61;102223.53;2096908;28;23182;-71
2022/07/10 04:40:12;;;;;;;3.42;0.35;;;;;;;19.26;57.57;102224.13;2097221;28;21864;-72
2022/07/10 04:41:14;;;;;;;3.00;0.45;;;;;;;19.48;56.82;102226.88;2097427;28;32618;-72
2022/07/10 04:42:15;;;;;;;4.93;0.35;;;;;;;20.33;54.10;102218.88;2097689;28;24477;-71
2022/07/10 04:43:17;;;;;;;4.95;0.25;;;;;;;20.50;51.13;102219.97;2097494;28;23536;-72
2022/07/10 04:44:19;;;;;;;3.47;0.30;;;;;;;20.72;51.19;102219.91;2097935;28;20111;-71
2022/07/10 04:45:21;;;;;;;3.90;0.30;;;;;;;20.95;52.28;102221.56;2097613;28;20902;-71
2022/07/10 04:46:23;;;;;;;2.60;0.30;;;;;;;21.65;49.80;102214.63;2098066;28;20118;-72
2022/07/10 04:47:24;;;;;;;3.72;0.30;;;;;;;21.90;47.74;102219.75;2097702;28;21434;-71
2022/07/10 04:48:26;;;;;;;4.22;0.20;;;;;;;22.33;47.61;102221.28;2097433;28;29220;-72
2022/07/10 04:49:32;;;;;;;4.13;0.28;;;;;;;22.64;47.18;102224.13;2097745;28;20041;-72
2022/07/10 04:50:34;;;;;;;4.03;0.25;;;;;;;22.48;47.49;102215.88;2097773;28;22355;-71
2022/07/10 04:51:36;;;;;;;2.92;0.30;;;;;;;21.61;46.91;102217.59;2097524;28;21605;-72
2022/07/10 04:52:37;;;;;;;3.92;0.30;;;;;;;22.18;45.57;102209.25;2097101;28;33468;-72
2022/07/10 04:53:39;;;;;;;5.30;0.40;;;;;;;22.42;45.91;102210.75;2097780;28;20103;-72
2022/07/10 04:54:42;;;;;;;3.63;0.32;;;;;;;22.80;45.42;102205.06;2097550;28;20037;-72
2022/07/10 04:55:44;;;;;;;5.07;0.30;;;;;;;22.68;45.42;102206.66;2097209;28;34316;-72